Tampa, FL (33601)

6:31 PM EDT on June 25, 2017 (GMT -0400)
The University of Tampa | | Change Station
Active Advisory: Areal Flood Advisory Active Notice: Areal Flood Advisory

Elev 30 ft 27.95 °N, 82.46 °W | Updated 5 seconds ago

Scattered Clouds
Scattered Clouds
79.7 °F
Feels Like 84 °F
N
4.9
Wind Variable Wind from North
Gusts 10.0 mph

Today
High -- | Low -- °F
--% Chance of Precip.
Yesterday
High -- | Low -- °F
Precip. -- in
Pressure 30.06 in
Visibility 10.0 miles
Clouds Scattered Clouds 11000 ft
Heat Index 84 °F
Dew Point 75 °F
Humidity 85%
Rainfall 0.00 in
Snow Depth Not available.
6:35 AM 8:29 PM
Waxing Crescent, 5% visible
METAR KTPF 252215Z AUTO 01007KT 10SM SCT110 28/25 A3006 RMK AO2
Pressure 30.06 in
Visibility 10.0 miles
Clouds Scattered Clouds 11000 ft
Heat Index 84 °F
Dew Point 75 °F
Humidity 85%
Rainfall 0.00 in
Snow Depth Not available.
6:35 AM 8:29 PM
Waxing Crescent, 5% visible
METAR KTPF 252215Z AUTO 01007KT 10SM SCT110 28/25 A3006 RMK AO2

Get Your Daily Forecast Email!

Thanks for signing up!

Be on the lookout for a verification email in your inbox.

You'll start receiving severe weather alerts in your inbox..

×

10-Day Weather Forecast

Almanac

Astronomy

Jun. 25, 2017 Rise Set
Actual Time
Civil Twilight
Nautical Twilight
Astronomical Twilight
Moon
Length of Visible Light
Length of Day
Tomorrow will be .
, % of the Moon is Illuminated

Today's Extremes

State Highs State Lows

Community

WunderPhotos

Category 6

Welcome to Category 6. This is the collective home for Weather Underground's featured writeups by Dr. Jeff Masters (right), Bob Henson (left), Chris Burt, and other regular contributors.

Nearby

Air Quality

  Air Quality AQ Index Pollutant
Not available.

Snow Depth

Station Depth Elevation

Earthquake Activity

City Distance Mag. Time & Date
Minimum magnitude displayed is 2.5.

Coastal Water Temperatures

Place Temperature

Stations

Nearby Weather Stations

Station Location Temp. Windchill Dew Point Humidity Wind Precip. Elev Updated Type
                   

Watches & Warnings

Areal Flood Advisory
Issued: 5:48 PM EDT Jun. 25, 2017 – National Weather Service

The National Weather Service in Ruskin has issued a

* flood advisory for...
north central Hillsborough County in west central Florida...

* until 715 PM EDT

* at 547 PM EDT, Doppler radar and automated rain gauges indicated
heavy rain due to thunderstorms. This will cause minor flooding in
the advisory area. In excess of 2 inches of rain has fallen in a
short period of time.

Additional rainfall of 2 inches is expected over the area. This
additional rain will result in minor flooding.

Precautionary/preparedness actions...

Excessive runoff from heavy rainfall will cause flooding of small
creeks and streams, urban areas, highways, streets and underpasses as
well as other drainage areas and low lying spots.


Lat... Lon 2805 8238 2798 8238 2797 8248 2800 8251
      2804 8250 2807 8244


Norman